sensor_id;sensor_type;location;lat;lon;timestamp;P1;durP1;ratioP1;P2;durP2;ratioP2
60076;SDS011;45950;45.208;20.374;2023-07-13T00:01:05;9.55;;;6.95;;
60076;SDS011;45950;45.208;20.374;2023-07-13T00:03:32;10.02;;;6.22;;
60076;SDS011;45950;45.208;20.374;2023-07-13T00:06:00;6.03;;;5.07;;
60076;SDS011;45950;45.208;20.374;2023-07-13T00:08:29;9.82;;;6.75;;
60076;SDS011;45950;45.208;20.374;2023-07-13T00:10:56;6.32;;;5.45;;
60076;SDS011;45950;45.208;20.374;2023-07-13T00:13:22;8.55;;;5.57;;
60076;SDS011;45950;45.208;20.374;2023-07-13T00:18:53;7.30;;;5.00;;
60076;SDS011;45950;45.208;20.374;2023-07-13T00:21:20;11.00;;;6.07;;
60076;SDS011;45950;45.208;20.374;2023-07-13T00:23:46;9.07;;;5.05;;
60076;SDS011;45950;45.208;20.374;2023-07-13T00:26:13;10.48;;;7.15;;
60076;SDS011;45950;45.208;20.374;2023-07-13T00:28:39;11.27;;;6.57;;
60076;SDS011;45950;45.208;20.374;2023-07-13T00:31:07;8.10;;;5.65;;
60076;SDS011;45950;45.208;20.374;2023-07-13T00:33:34;12.18;;;7.28;;
60076;SDS011;45950;45.208;20.374;2023-07-13T00:36:02;8.80;;;6.05;;
60076;SDS011;45950;45.208;20.374;2023-07-13T00:38:29;12.20;;;7.15;;
60076;SDS011;45950;45.208;20.374;2023-07-13T00:40:55;10.13;;;6.30;;
60076;SDS011;45950;45.208;20.374;2023-07-13T00:43:22;9.40;;;5.50;;
60076;SDS011;45950;45.208;20.374;2023-07-13T00:48:40;10.32;;;5.68;;
60076;SDS011;45950;45.208;20.374;2023-07-13T00:51:10;9.27;;;5.68;;
60076;SDS011;45950;45.208;20.374;2023-07-13T00:53:38;10.52;;;6.50;;
60076;SDS011;45950;45.208;20.374;2023-07-13T00:56:04;7.43;;;5.38;;
60076;SDS011;45950;45.208;20.374;2023-07-13T00:58:32;8.02;;;5.40;;
60076;SDS011;45950;45.208;20.374;2023-07-13T01:00:58;11.20;;;6.20;;
60076;SDS011;45950;45.208;20.374;2023-07-13T01:03:25;7.68;;;5.47;;
60076;SDS011;45950;45.208;20.374;2023-07-13T01:05:51;10.43;;;6.03;;
60076;SDS011;45950;45.208;20.374;2023-07-13T01:08:21;11.52;;;5.93;;
60076;SDS011;45950;45.208;20.374;2023-07-13T01:10:51;16.35;;;7.50;;
60076;SDS011;45950;45.208;20.374;2023-07-13T01:13:18;8.95;;;6.07;;
60076;SDS011;45950;45.208;20.374;2023-07-13T01:15:46;12.07;;;6.03;;
60076;SDS011;45950;45.208;20.374;2023-07-13T01:18:18;8.77;;;6.03;;
60076;SDS011;45950;45.208;20.374;2023-07-13T01:20:50;12.80;;;6.28;;
60076;SDS011;45950;45.208;20.374;2023-07-13T01:23:16;10.20;;;6.38;;
60076;SDS011;45950;45.208;20.374;2023-07-13T01:25:44;9.75;;;5.97;;
60076;SDS011;45950;45.208;20.374;2023-07-13T01:28:11;10.63;;;5.90;;
60076;SDS011;45950;45.208;20.374;2023-07-13T01:30:38;10.55;;;7.25;;
60076;SDS011;45950;45.208;20.374;2023-07-13T01:33:05;12.05;;;6.03;;
60076;SDS011;45950;45.208;20.374;2023-07-13T01:35:32;8.25;;;6.78;;
60076;SDS011;45950;45.208;20.374;2023-07-13T01:38:00;8.98;;;6.32;;
60076;SDS011;45950;45.208;20.374;2023-07-13T01:40:28;9.23;;;6.72;;
60076;SDS011;45950;45.208;20.374;2023-07-13T01:42:55;9.65;;;6.05;;
60076;SDS011;45950;45.208;20.374;2023-07-13T01:45:21;10.65;;;6.68;;
60076;SDS011;45950;45.208;20.374;2023-07-13T01:47:48;9.23;;;5.85;;
60076;SDS011;45950;45.208;20.374;2023-07-13T01:50:15;8.65;;;6.28;;
60076;SDS011;45950;45.208;20.374;2023-07-13T01:52:41;8.82;;;5.70;;
60076;SDS011;45950;45.208;20.374;2023-07-13T01:55:10;8.30;;;5.20;;
60076;SDS011;45950;45.208;20.374;2023-07-13T01:57:36;10.48;;;4.72;;
60076;SDS011;45950;45.208;20.374;2023-07-13T02:00:03;7.00;;;4.75;;
60076;SDS011;45950;45.208;20.374;2023-07-13T02:02:30;13.05;;;5.68;;
60076;SDS011;45950;45.208;20.374;2023-07-13T02:04:56;9.05;;;4.68;;
60076;SDS011;45950;45.208;20.374;2023-07-13T02:07:23;6.53;;;4.85;;
60076;SDS011;45950;45.208;20.374;2023-07-13T02:09:50;9.90;;;5.75;;
60076;SDS011;45950;45.208;20.374;2023-07-13T02:12:18;7.25;;;5.50;;
60076;SDS011;45950;45.208;20.374;2023-07-13T02:14:44;10.23;;;5.65;;
60076;SDS011;45950;45.208;20.374;2023-07-13T02:17:11;8.98;;;5.68;;
60076;SDS011;45950;45.208;20.374;2023-07-13T02:19:37;7.35;;;5.63;;
60076;SDS011;45950;45.208;20.374;2023-07-13T02:22:04;8.68;;;5.43;;
60076;SDS011;45950;45.208;20.374;2023-07-13T02:24:31;7.38;;;5.47;;
60076;SDS011;45950;45.208;20.374;2023-07-13T02:26:58;10.18;;;5.70;;
60076;SDS011;45950;45.208;20.374;2023-07-13T02:29:26;9.48;;;5.60;;
60076;SDS011;45950;45.208;20.374;2023-07-13T02:31:52;8.65;;;5.15;;
60076;SDS011;45950;45.208;20.374;2023-07-13T02:34:19;9.05;;;5.47;;
60076;SDS011;45950;45.208;20.374;2023-07-13T02:36:45;8.13;;;5.82;;
60076;SDS011;45950;45.208;20.374;2023-07-13T02:39:13;11.25;;;5.60;;
60076;SDS011;45950;45.208;20.374;2023-07-13T02:41:40;9.40;;;5.82;;
60076;SDS011;45950;45.208;20.374;2023-07-13T02:44:06;12.27;;;6.63;;
60076;SDS011;45950;45.208;20.374;2023-07-13T02:46:35;10.70;;;6.60;;
60076;SDS011;45950;45.208;20.374;2023-07-13T02:49:02;8.75;;;6.50;;
60076;SDS011;45950;45.208;20.374;2023-07-13T02:51:29;12.52;;;6.95;;
60076;SDS011;45950;45.208;20.374;2023-07-13T02:56:58;11.68;;;8.27;;
60076;SDS011;45950;45.208;20.374;2023-07-13T02:59:25;13.88;;;8.25;;
60076;SDS011;45950;45.208;20.374;2023-07-13T03:01:53;9.02;;;7.45;;
60076;SDS011;45950;45.208;20.374;2023-07-13T03:04:19;11.73;;;7.28;;
60076;SDS011;45950;45.208;20.374;2023-07-13T03:06:46;9.65;;;6.68;;
60076;SDS011;45950;45.208;20.374;2023-07-13T03:09:13;10.32;;;6.78;;
60076;SDS011;45950;45.208;20.374;2023-07-13T03:11:42;11.57;;;7.22;;
60076;SDS011;45950;45.208;20.374;2023-07-13T03:14:09;10.30;;;7.43;;
60076;SDS011;45950;45.208;20.374;2023-07-13T03:16:36;10.63;;;7.30;;
60076;SDS011;45950;45.208;20.374;2023-07-13T03:22:07;10.98;;;7.00;;
60076;SDS011;45950;45.208;20.374;2023-07-13T03:24:34;10.40;;;7.55;;
60076;SDS011;45950;45.208;20.374;2023-07-13T03:27:03;10.73;;;6.43;;
60076;SDS011;45950;45.208;20.374;2023-07-13T03:29:30;11.15;;;7.20;;
60076;SDS011;45950;45.208;20.374;2023-07-13T03:31:57;10.60;;;7.13;;
60076;SDS011;45950;45.208;20.374;2023-07-13T03:34:23;12.48;;;8.98;;
60076;SDS011;45950;45.208;20.374;2023-07-13T03:36:50;12.00;;;8.07;;
60076;SDS011;45950;45.208;20.374;2023-07-13T03:39:18;12.38;;;8.27;;
60076;SDS011;45950;45.208;20.374;2023-07-13T03:41:44;14.38;;;8.82;;
60076;SDS011;45950;45.208;20.374;2023-07-13T03:44:11;15.10;;;9.02;;
60076;SDS011;45950;45.208;20.374;2023-07-13T03:49:40;14.27;;;9.65;;
60076;SDS011;45950;45.208;20.374;2023-07-13T03:52:07;14.23;;;9.45;;
60076;SDS011;45950;45.208;20.374;2023-07-13T03:54:35;12.70;;;8.90;;
60076;SDS011;45950;45.208;20.374;2023-07-13T03:57:02;15.32;;;9.30;;
60076;SDS011;45950;45.208;20.374;2023-07-13T03:59:28;16.73;;;11.07;;
60076;SDS011;45950;45.208;20.374;2023-07-13T04:01:55;14.15;;;9.63;;
60076;SDS011;45950;45.208;20.374;2023-07-13T04:04:21;14.77;;;9.88;;
60076;SDS011;45950;45.208;20.374;2023-07-13T04:06:48;15.30;;;11.18;;
60076;SDS011;45950;45.208;20.374;2023-07-13T04:09:14;15.23;;;10.55;;
60076;SDS011;45950;45.208;20.374;2023-07-13T04:11:42;12.73;;;10.32;;
60076;SDS011;45950;45.208;20.374;2023-07-13T04:14:09;19.88;;;11.23;;
60076;SDS011;45950;45.208;20.374;2023-07-13T04:16:35;17.42;;;11.02;;
60076;SDS011;45950;45.208;20.374;2023-07-13T04:19:02;14.75;;;9.88;;
60076;SDS011;45950;45.208;20.374;2023-07-13T04:21:29;15.48;;;10.77;;
60076;SDS011;45950;45.208;20.374;2023-07-13T04:24:06;10.75;;;8.88;;
60076;SDS011;45950;45.208;20.374;2023-07-13T04:26:33;13.63;;;9.82;;
60076;SDS011;45950;45.208;20.374;2023-07-13T04:29:02;15.93;;;11.73;;
60076;SDS011;45950;45.208;20.374;2023-07-13T04:31:43;13.23;;;9.85;;
60076;SDS011;45950;45.208;20.374;2023-07-13T04:34:09;17.30;;;11.18;;
60076;SDS011;45950;45.208;20.374;2023-07-13T04:36:36;16.63;;;11.65;;
60076;SDS011;45950;45.208;20.374;2023-07-13T04:39:21;22.48;;;10.40;;
60076;SDS011;45950;45.208;20.374;2023-07-13T04:41:47;18.17;;;11.70;;
60076;SDS011;45950;45.208;20.374;2023-07-13T04:44:15;15.90;;;12.00;;
60076;SDS011;45950;45.208;20.374;2023-07-13T04:46:42;19.13;;;12.82;;
60076;SDS011;45950;45.208;20.374;2023-07-13T04:49:08;21.38;;;12.65;;
60076;SDS011;45950;45.208;20.374;2023-07-13T04:51:50;19.48;;;12.57;;
60076;SDS011;45950;45.208;20.374;2023-07-13T04:54:17;16.63;;;12.70;;
60076;SDS011;45950;45.208;20.374;2023-07-13T04:56:43;20.13;;;12.25;;
60076;SDS011;45950;45.208;20.374;2023-07-13T04:59:18;17.02;;;12.85;;
60076;SDS011;45950;45.208;20.374;2023-07-13T05:01:45;17.63;;;13.13;;
60076;SDS011;45950;45.208;20.374;2023-07-13T05:04:11;17.02;;;12.35;;
60076;SDS011;45950;45.208;20.374;2023-07-13T05:06:38;16.15;;;12.80;;
60076;SDS011;45950;45.208;20.374;2023-07-13T05:09:05;20.17;;;13.32;;
60076;SDS011;45950;45.208;20.374;2023-07-13T05:11:32;21.20;;;12.73;;
60076;SDS011;45950;45.208;20.374;2023-07-13T05:13:59;17.52;;;14.00;;
60076;SDS011;45950;45.208;20.374;2023-07-13T05:16:27;17.60;;;12.70;;
60076;SDS011;45950;45.208;20.374;2023-07-13T05:18:54;21.38;;;12.63;;
60076;SDS011;45950;45.208;20.374;2023-07-13T05:21:20;17.38;;;14.30;;
60076;SDS011;45950;45.208;20.374;2023-07-13T05:23:47;19.50;;;14.38;;
60076;SDS011;45950;45.208;20.374;2023-07-13T05:26:14;24.73;;;15.20;;
60076;SDS011;45950;45.208;20.374;2023-07-13T05:28:40;21.70;;;14.65;;
60076;SDS011;45950;45.208;20.374;2023-07-13T05:31:07;17.40;;;13.65;;
60076;SDS011;45950;45.208;20.374;2023-07-13T05:33:37;19.80;;;13.18;;
60076;SDS011;45950;45.208;20.374;2023-07-13T05:36:04;17.13;;;12.18;;
60076;SDS011;45950;45.208;20.374;2023-07-13T05:38:32;19.85;;;11.10;;
60076;SDS011;45950;45.208;20.374;2023-07-13T05:40:59;17.60;;;11.77;;
60076;SDS011;45950;45.208;20.374;2023-07-13T05:43:25;18.58;;;12.68;;
60076;SDS011;45950;45.208;20.374;2023-07-13T05:45:52;17.02;;;12.02;;
60076;SDS011;45950;45.208;20.374;2023-07-13T05:48:19;15.35;;;11.73;;
60076;SDS011;45950;45.208;20.374;2023-07-13T05:50:47;18.40;;;11.18;;
60076;SDS011;45950;45.208;20.374;2023-07-13T05:53:14;15.18;;;11.00;;
60076;SDS011;45950;45.208;20.374;2023-07-13T05:55:41;16.80;;;12.48;;
60076;SDS011;45950;45.208;20.374;2023-07-13T05:58:08;16.73;;;11.63;;
60076;SDS011;45950;45.208;20.374;2023-07-13T06:00:34;15.23;;;11.25;;
60076;SDS011;45950;45.208;20.374;2023-07-13T06:03:01;18.13;;;11.68;;
60076;SDS011;45950;45.208;20.374;2023-07-13T06:05:27;15.48;;;10.95;;
60076;SDS011;45950;45.208;20.374;2023-07-13T06:07:55;13.48;;;10.88;;
60076;SDS011;45950;45.208;20.374;2023-07-13T06:10:22;14.93;;;10.70;;
60076;SDS011;45950;45.208;20.374;2023-07-13T06:12:48;14.43;;;10.48;;
60076;SDS011;45950;45.208;20.374;2023-07-13T06:18:09;15.02;;;11.85;;
60076;SDS011;45950;45.208;20.374;2023-07-13T06:20:36;16.05;;;11.35;;
60076;SDS011;45950;45.208;20.374;2023-07-13T06:26:00;18.58;;;10.80;;
60076;SDS011;45950;45.208;20.374;2023-07-13T06:28:26;17.40;;;12.50;;
60076;SDS011;45950;45.208;20.374;2023-07-13T06:30:53;17.98;;;12.10;;
60076;SDS011;45950;45.208;20.374;2023-07-13T06:33:19;19.02;;;12.85;;
60076;SDS011;45950;45.208;20.374;2023-07-13T06:35:46;15.52;;;12.30;;
60076;SDS011;45950;45.208;20.374;2023-07-13T06:38:12;15.27;;;11.77;;
60076;SDS011;45950;45.208;20.374;2023-07-13T06:40:39;15.07;;;10.82;;
60076;SDS011;45950;45.208;20.374;2023-07-13T06:43:07;13.93;;;9.85;;
60076;SDS011;45950;45.208;20.374;2023-07-13T06:45:43;17.52;;;11.48;;
60076;SDS011;45950;45.208;20.374;2023-07-13T06:48:11;14.43;;;9.57;;
60076;SDS011;45950;45.208;20.374;2023-07-13T06:50:37;13.45;;;9.55;;
60076;SDS011;45950;45.208;20.374;2023-07-13T06:53:04;12.50;;;8.75;;
60076;SDS011;45950;45.208;20.374;2023-07-13T06:55:30;10.57;;;7.40;;
60076;SDS011;45950;45.208;20.374;2023-07-13T07:00:51;10.10;;;7.45;;
60076;SDS011;45950;45.208;20.374;2023-07-13T07:03:18;19.48;;;9.15;;
60076;SDS011;45950;45.208;20.374;2023-07-13T07:05:44;15.57;;;9.45;;
60076;SDS011;45950;45.208;20.374;2023-07-13T07:08:11;19.25;;;10.23;;
60076;SDS011;45950;45.208;20.374;2023-07-13T07:10:37;19.75;;;8.60;;
60076;SDS011;45950;45.208;20.374;2023-07-13T07:13:04;15.15;;;8.25;;
60076;SDS011;45950;45.208;20.374;2023-07-13T07:15:47;11.80;;;8.13;;
60076;SDS011;45950;45.208;20.374;2023-07-13T07:18:15;15.65;;;7.40;;
60076;SDS011;45950;45.208;20.374;2023-07-13T07:20:41;13.68;;;7.60;;
60076;SDS011;45950;45.208;20.374;2023-07-13T07:23:08;16.15;;;7.65;;
60076;SDS011;45950;45.208;20.374;2023-07-13T07:25:44;21.38;;;7.88;;
60076;SDS011;45950;45.208;20.374;2023-07-13T07:28:11;12.45;;;6.93;;
60076;SDS011;45950;45.208;20.374;2023-07-13T07:30:41;15.38;;;6.88;;
60076;SDS011;45950;45.208;20.374;2023-07-13T07:33:08;16.75;;;7.38;;
60076;SDS011;45950;45.208;20.374;2023-07-13T07:35:35;11.27;;;7.22;;
60076;SDS011;45950;45.208;20.374;2023-07-13T07:38:02;11.15;;;6.45;;
60076;SDS011;45950;45.208;20.374;2023-07-13T07:40:29;16.13;;;7.15;;
60076;SDS011;45950;45.208;20.374;2023-07-13T07:45:59;11.20;;;6.82;;
60076;SDS011;45950;45.208;20.374;2023-07-13T07:48:25;13.93;;;6.82;;
60076;SDS011;45950;45.208;20.374;2023-07-13T07:50:53;11.55;;;7.72;;
60076;SDS011;45950;45.208;20.374;2023-07-13T07:53:20;17.80;;;7.75;;
60076;SDS011;45950;45.208;20.374;2023-07-13T07:55:46;16.77;;;7.13;;
60076;SDS011;45950;45.208;20.374;2023-07-13T07:58:32;12.60;;;6.47;;
60076;SDS011;45950;45.208;20.374;2023-07-13T08:01:02;11.15;;;6.10;;
60076;SDS011;45950;45.208;20.374;2023-07-13T08:03:28;11.40;;;6.30;;
60076;SDS011;45950;45.208;20.374;2023-07-13T08:06:04;7.75;;;5.30;;
60076;SDS011;45950;45.208;20.374;2023-07-13T08:08:31;15.13;;;6.38;;
60076;SDS011;45950;45.208;20.374;2023-07-13T08:10:57;9.25;;;5.85;;
60076;SDS011;45950;45.208;20.374;2023-07-13T08:13:24;13.45;;;6.55;;
60076;SDS011;45950;45.208;20.374;2023-07-13T08:15:50;12.77;;;5.47;;
60076;SDS011;45950;45.208;20.374;2023-07-13T08:18:17;10.38;;;4.90;;
60076;SDS011;45950;45.208;20.374;2023-07-13T08:20:43;15.82;;;6.53;;
60076;SDS011;45950;45.208;20.374;2023-07-13T08:23:12;11.20;;;5.40;;
60076;SDS011;45950;45.208;20.374;2023-07-13T08:25:38;17.30;;;6.15;;
60076;SDS011;45950;45.208;20.374;2023-07-13T08:28:05;12.98;;;5.88;;
60076;SDS011;45950;45.208;20.374;2023-07-13T08:30:31;9.38;;;5.07;;
60076;SDS011;45950;45.208;20.374;2023-07-13T08:32:58;10.98;;;5.15;;
60076;SDS011;45950;45.208;20.374;2023-07-13T08:35:25;12.23;;;4.93;;
60076;SDS011;45950;45.208;20.374;2023-07-13T08:37:51;13.27;;;5.07;;
60076;SDS011;45950;45.208;20.374;2023-07-13T08:40:19;16.48;;;6.50;;
60076;SDS011;45950;45.208;20.374;2023-07-13T08:42:51;10.15;;;5.18;;
60076;SDS011;45950;45.208;20.374;2023-07-13T08:45:30;10.30;;;5.25;;
60076;SDS011;45950;45.208;20.374;2023-07-13T08:47:59;10.07;;;4.95;;
60076;SDS011;45950;45.208;20.374;2023-07-13T08:50:29;9.20;;;5.18;;
60076;SDS011;45950;45.208;20.374;2023-07-13T08:53:11;13.00;;;5.40;;
60076;SDS011;45950;45.208;20.374;2023-07-13T08:55:40;11.48;;;5.82;;
60076;SDS011;45950;45.208;20.374;2023-07-13T08:58:09;11.05;;;6.30;;
60076;SDS011;45950;45.208;20.374;2023-07-13T09:00:39;10.85;;;5.18;;
60076;SDS011;45950;45.208;20.374;2023-07-13T09:03:12;8.40;;;4.95;;
60076;SDS011;45950;45.208;20.374;2023-07-13T09:05:45;14.35;;;6.05;;
60076;SDS011;45950;45.208;20.374;2023-07-13T09:08:18;12.95;;;5.97;;
60076;SDS011;45950;45.208;20.374;2023-07-13T09:10:52;10.27;;;5.25;;
60076;SDS011;45950;45.208;20.374;2023-07-13T09:13:22;11.45;;;5.35;;
60076;SDS011;45950;45.208;20.374;2023-07-13T09:15:49;9.10;;;4.80;;
60076;SDS011;45950;45.208;20.374;2023-07-13T09:18:18;12.68;;;5.93;;
60076;SDS011;45950;45.208;20.374;2023-07-13T09:20:48;9.73;;;5.13;;
60076;SDS011;45950;45.208;20.374;2023-07-13T09:23:16;13.38;;;5.70;;
60076;SDS011;45950;45.208;20.374;2023-07-13T09:25:45;8.63;;;5.50;;
60076;SDS011;45950;45.208;20.374;2023-07-13T09:31:03;13.27;;;6.13;;
60076;SDS011;45950;45.208;20.374;2023-07-13T09:33:30;11.68;;;5.97;;
60076;SDS011;45950;45.208;20.374;2023-07-13T09:35:58;8.52;;;5.55;;
60076;SDS011;45950;45.208;20.374;2023-07-13T09:38:25;12.88;;;6.97;;
60076;SDS011;45950;45.208;20.374;2023-07-13T09:40:59;13.48;;;5.50;;
60076;SDS011;45950;45.208;20.374;2023-07-13T09:46:20;12.27;;;4.93;;
60076;SDS011;45950;45.208;20.374;2023-07-13T09:48:48;10.75;;;4.88;;
60076;SDS011;45950;45.208;20.374;2023-07-13T09:51:15;10.80;;;5.30;;
60076;SDS011;45950;45.208;20.374;2023-07-13T09:56:34;9.13;;;5.22;;
60076;SDS011;45950;45.208;20.374;2023-07-13T09:59:00;11.25;;;5.32;;
60076;SDS011;45950;45.208;20.374;2023-07-13T10:04:32;13.20;;;5.53;;
60076;SDS011;45950;45.208;20.374;2023-07-13T10:07:05;11.55;;;5.65;;
60076;SDS011;45950;45.208;20.374;2023-07-13T10:09:33;15.02;;;5.68;;
60076;SDS011;45950;45.208;20.374;2023-07-13T10:11:59;12.68;;;5.47;;
60076;SDS011;45950;45.208;20.374;2023-07-13T10:14:27;7.22;;;4.47;;
60076;SDS011;45950;45.208;20.374;2023-07-13T10:16:58;13.00;;;5.85;;
60076;SDS011;45950;45.208;20.374;2023-07-13T10:19:27;9.43;;;5.22;;
60076;SDS011;45950;45.208;20.374;2023-07-13T10:21:58;11.85;;;5.93;;
60076;SDS011;45950;45.208;20.374;2023-07-13T10:24:26;11.43;;;5.38;;
60076;SDS011;45950;45.208;20.374;2023-07-13T10:26:54;10.65;;;5.30;;
60076;SDS011;45950;45.208;20.374;2023-07-13T10:29:23;10.32;;;5.55;;
60076;SDS011;45950;45.208;20.374;2023-07-13T10:31:51;12.52;;;5.38;;
60076;SDS011;45950;45.208;20.374;2023-07-13T10:34:18;11.20;;;5.10;;
60076;SDS011;45950;45.208;20.374;2023-07-13T10:36:45;9.90;;;5.22;;
60076;SDS011;45950;45.208;20.374;2023-07-13T10:44:38;11.18;;;4.75;;
60076;SDS011;45950;45.208;20.374;2023-07-13T10:47:06;10.10;;;4.97;;
60076;SDS011;45950;45.208;20.374;2023-07-13T10:49:34;9.43;;;5.57;;
60076;SDS011;45950;45.208;20.374;2023-07-13T10:52:02;9.32;;;4.40;;
60076;SDS011;45950;45.208;20.374;2023-07-13T10:54:30;12.60;;;5.32;;
60076;SDS011;45950;45.208;20.374;2023-07-13T10:59:44;12.70;;;5.60;;
60076;SDS011;45950;45.208;20.374;2023-07-13T11:02:15;12.13;;;5.18;;
60076;SDS011;45950;45.208;20.374;2023-07-13T11:04:47;12.02;;;5.22;;
60076;SDS011;45950;45.208;20.374;2023-07-13T11:07:19;15.52;;;5.68;;
60076;SDS011;45950;45.208;20.374;2023-07-13T11:09:48;11.43;;;5.20;;
60076;SDS011;45950;45.208;20.374;2023-07-13T11:12:26;11.30;;;5.70;;
60076;SDS011;45950;45.208;20.374;2023-07-13T11:15:09;9.00;;;4.80;;
60076;SDS011;45950;45.208;20.374;2023-07-13T11:20:09;12.77;;;5.97;;
60076;SDS011;45950;45.208;20.374;2023-07-13T11:22:45;10.77;;;5.45;;
60076;SDS011;45950;45.208;20.374;2023-07-13T11:25:25;6.95;;;4.93;;
60076;SDS011;45950;45.208;20.374;2023-07-13T11:28:03;10.50;;;5.40;;
60076;SDS011;45950;45.208;20.374;2023-07-13T11:30:35;11.63;;;5.05;;
60076;SDS011;45950;45.208;20.374;2023-07-13T11:33:03;8.73;;;5.75;;
60076;SDS011;45950;45.208;20.374;2023-07-13T11:35:35;9.18;;;5.00;;
60076;SDS011;45950;45.208;20.374;2023-07-13T11:38:05;9.38;;;5.32;;
60076;SDS011;45950;45.208;20.374;2023-07-13T11:40:38;7.90;;;4.70;;
60076;SDS011;45950;45.208;20.374;2023-07-13T11:43:23;12.27;;;5.35;;
60076;SDS011;45950;45.208;20.374;2023-07-13T11:45:52;13.38;;;5.97;;
60076;SDS011;45950;45.208;20.374;2023-07-13T11:48:23;8.52;;;4.80;;
60076;SDS011;45950;45.208;20.374;2023-07-13T11:50:53;14.20;;;6.18;;
60076;SDS011;45950;45.208;20.374;2023-07-13T11:53:22;14.05;;;5.60;;
60076;SDS011;45950;45.208;20.374;2023-07-13T11:55:49;13.82;;;6.53;;
60076;SDS011;45950;45.208;20.374;2023-07-13T11:58:17;8.13;;;4.43;;
60076;SDS011;45950;45.208;20.374;2023-07-13T12:00:46;12.38;;;4.82;;
60076;SDS011;45950;45.208;20.374;2023-07-13T12:03:14;8.25;;;5.35;;
60076;SDS011;45950;45.208;20.374;2023-07-13T12:05:54;13.70;;;5.63;;
60076;SDS011;45950;45.208;20.374;2023-07-13T12:08:22;8.15;;;4.80;;
60076;SDS011;45950;45.208;20.374;2023-07-13T12:10:55;12.60;;;5.00;;
60076;SDS011;45950;45.208;20.374;2023-07-13T12:13:22;8.60;;;4.40;;
60076;SDS011;45950;45.208;20.374;2023-07-13T12:15:48;12.85;;;4.78;;
60076;SDS011;45950;45.208;20.374;2023-07-13T12:18:19;9.35;;;5.10;;
60076;SDS011;45950;45.208;20.374;2023-07-13T12:23:35;9.65;;;5.18;;
60076;SDS011;45950;45.208;20.374;2023-07-13T12:26:02;10.65;;;4.90;;
60076;SDS011;45950;45.208;20.374;2023-07-13T12:31:30;8.48;;;4.55;;
60076;SDS011;45950;45.208;20.374;2023-07-13T12:34:00;7.68;;;4.47;;
60076;SDS011;45950;45.208;20.374;2023-07-13T12:36:37;10.70;;;4.55;;
60076;SDS011;45950;45.208;20.374;2023-07-13T12:39:11;9.02;;;4.68;;
60076;SDS011;45950;45.208;20.374;2023-07-13T12:41:38;13.70;;;5.40;;
60076;SDS011;45950;45.208;20.374;2023-07-13T12:44:07;8.20;;;4.25;;
60076;SDS011;45950;45.208;20.374;2023-07-13T12:46:35;8.68;;;4.28;;
60076;SDS011;45950;45.208;20.374;2023-07-13T12:49:04;9.20;;;4.20;;
60076;SDS011;45950;45.208;20.374;2023-07-13T12:51:32;5.93;;;3.85;;
60076;SDS011;45950;45.208;20.374;2023-07-13T12:54:05;8.30;;;4.00;;
60076;SDS011;45950;45.208;20.374;2023-07-13T12:56:32;6.25;;;4.35;;
60076;SDS011;45950;45.208;20.374;2023-07-13T12:59:00;11.10;;;4.32;;
60076;SDS011;45950;45.208;20.374;2023-07-13T13:01:28;6.43;;;3.95;;
60076;SDS011;45950;45.208;20.374;2023-07-13T13:03:55;11.50;;;4.10;;
60076;SDS011;45950;45.208;20.374;2023-07-13T13:06:24;8.48;;;4.57;;
60076;SDS011;45950;45.208;20.374;2023-07-13T13:08:51;9.13;;;5.13;;
60076;SDS011;45950;45.208;20.374;2023-07-13T13:14:09;13.95;;;5.03;;
60076;SDS011;45950;45.208;20.374;2023-07-13T13:16:37;17.33;;;5.70;;
60076;SDS011;45950;45.208;20.374;2023-07-13T13:19:20;9.40;;;4.32;;
60076;SDS011;45950;45.208;20.374;2023-07-13T13:21:48;14.13;;;5.57;;
60076;SDS011;45950;45.208;20.374;2023-07-13T13:24:18;12.43;;;5.78;;
60076;SDS011;45950;45.208;20.374;2023-07-13T13:26:50;13.35;;;5.28;;
60076;SDS011;45950;45.208;20.374;2023-07-13T13:29:17;11.15;;;4.93;;
60076;SDS011;45950;45.208;20.374;2023-07-13T13:31:44;10.35;;;5.10;;
60076;SDS011;45950;45.208;20.374;2023-07-13T13:34:11;11.57;;;4.78;;
60076;SDS011;45950;45.208;20.374;2023-07-13T13:36:39;13.38;;;4.78;;
60076;SDS011;45950;45.208;20.374;2023-07-13T13:39:10;9.85;;;5.20;;
60076;SDS011;45950;45.208;20.374;2023-07-13T13:41:40;15.02;;;5.40;;
60076;SDS011;45950;45.208;20.374;2023-07-13T13:44:08;11.85;;;5.45;;
60076;SDS011;45950;45.208;20.374;2023-07-13T13:46:35;9.68;;;4.80;;
60076;SDS011;45950;45.208;20.374;2023-07-13T13:49:02;12.57;;;5.10;;
60076;SDS011;45950;45.208;20.374;2023-07-13T13:51:29;14.35;;;5.38;;
60076;SDS011;45950;45.208;20.374;2023-07-13T13:53:56;7.28;;;4.68;;
60076;SDS011;45950;45.208;20.374;2023-07-13T13:56:25;14.50;;;5.43;;
60076;SDS011;45950;45.208;20.374;2023-07-13T13:58:52;13.38;;;5.10;;
60076;SDS011;45950;45.208;20.374;2023-07-13T14:01:19;8.57;;;4.13;;
60076;SDS011;45950;45.208;20.374;2023-07-13T14:03:47;13.02;;;5.05;;
60076;SDS011;45950;45.208;20.374;2023-07-13T14:06:16;14.02;;;4.63;;
60076;SDS011;45950;45.208;20.374;2023-07-13T14:08:43;9.75;;;4.38;;
60076;SDS011;45950;45.208;20.374;2023-07-13T14:11:11;9.82;;;4.00;;
60076;SDS011;45950;45.208;20.374;2023-07-13T14:13:49;10.30;;;3.80;;
60076;SDS011;45950;45.208;20.374;2023-07-13T14:16:16;9.50;;;3.80;;
60076;SDS011;45950;45.208;20.374;2023-07-13T14:18:43;6.63;;;3.47;;
60076;SDS011;45950;45.208;20.374;2023-07-13T14:24:12;9.07;;;3.42;;
60076;SDS011;45950;45.208;20.374;2023-07-13T14:26:40;9.65;;;3.33;;
60076;SDS011;45950;45.208;20.374;2023-07-13T14:29:12;10.73;;;3.97;;
60076;SDS011;45950;45.208;20.374;2023-07-13T14:31:40;8.32;;;3.53;;
60076;SDS011;45950;45.208;20.374;2023-07-13T14:34:07;10.35;;;3.78;;
60076;SDS011;45950;45.208;20.374;2023-07-13T14:39:35;9.15;;;2.90;;
60076;SDS011;45950;45.208;20.374;2023-07-13T14:42:02;7.57;;;3.20;;
60076;SDS011;45950;45.208;20.374;2023-07-13T14:44:30;6.65;;;3.33;;
60076;SDS011;45950;45.208;20.374;2023-07-13T14:46:58;5.57;;;3.13;;
60076;SDS011;45950;45.208;20.374;2023-07-13T14:49:27;6.95;;;3.03;;
60076;SDS011;45950;45.208;20.374;2023-07-13T14:51:55;8.88;;;2.88;;
60076;SDS011;45950;45.208;20.374;2023-07-13T14:54:23;7.45;;;3.42;;
60076;SDS011;45950;45.208;20.374;2023-07-13T14:56:49;5.53;;;3.00;;
60076;SDS011;45950;45.208;20.374;2023-07-13T14:59:16;9.63;;;3.38;;
60076;SDS011;45950;45.208;20.374;2023-07-13T15:01:45;7.43;;;2.67;;
60076;SDS011;45950;45.208;20.374;2023-07-13T15:04:12;7.93;;;3.10;;
60076;SDS011;45950;45.208;20.374;2023-07-13T15:06:52;5.43;;;3.20;;
60076;SDS011;45950;45.208;20.374;2023-07-13T15:09:19;5.57;;;2.90;;
60076;SDS011;45950;45.208;20.374;2023-07-13T15:11:46;7.60;;;3.08;;
60076;SDS011;45950;45.208;20.374;2023-07-13T15:14:13;8.43;;;3.38;;
60076;SDS011;45950;45.208;20.374;2023-07-13T15:16:39;4.68;;;2.67;;
60076;SDS011;45950;45.208;20.374;2023-07-13T15:19:08;9.90;;;3.05;;
60076;SDS011;45950;45.208;20.374;2023-07-13T15:21:35;6.13;;;2.83;;
60076;SDS011;45950;45.208;20.374;2023-07-13T15:24:02;5.72;;;2.53;;
60076;SDS011;45950;45.208;20.374;2023-07-13T15:26:29;8.90;;;3.00;;
60076;SDS011;45950;45.208;20.374;2023-07-13T15:28:56;6.75;;;3.05;;
60076;SDS011;45950;45.208;20.374;2023-07-13T15:31:24;7.15;;;3.08;;
60076;SDS011;45950;45.208;20.374;2023-07-13T15:33:52;6.32;;;3.05;;